createdAt,value
2017-02-10T00:00:05.817Z,14.38
2017-02-10T00:01:14.804Z,14.39
2017-02-10T00:02:23.788Z,14.47
2017-02-10T00:03:32.756Z,14.42
2017-02-10T00:04:41.738Z,14.3
2017-02-10T00:05:50.708Z,14.44
2017-02-10T00:06:59.810Z,14.32
2017-02-10T00:08:08.787Z,14.24
2017-02-10T00:09:17.761Z,14.14
2017-02-10T00:10:26.736Z,14.17
2017-02-10T00:11:35.713Z,14.06
2017-02-10T00:12:44.949Z,14.06
2017-02-10T00:13:53.915Z,14.12
2017-02-10T00:15:02.892Z,14.05
2017-02-10T00:16:11.858Z,14.06
2017-02-10T00:17:20.836Z,14.02
2017-02-10T00:18:29.819Z,13.99
2017-02-10T00:19:38.801Z,13.98
2017-02-10T00:20:47.770Z,13.99
2017-02-10T00:21:56.751Z,13.84
2017-02-10T00:23:05.717Z,13.92
2017-02-10T00:24:14.690Z,13.83
2017-02-10T00:25:23.673Z,13.8
2017-02-10T00:26:32.656Z,13.83
2017-02-10T00:27:41.627Z,13.58
2017-02-10T00:28:51.030Z,13.66
2017-02-10T00:29:59.998Z,13.76
2017-02-10T00:31:08.969Z,13.66
2017-02-10T00:32:17.948Z,13.69
2017-02-10T00:33:26.928Z,13.68
2017-02-10T00:34:35.899Z,13.69
2017-02-10T00:35:44.870Z,13.65
2017-02-10T00:36:53.852Z,13.62
2017-02-10T00:38:02.824Z,13.56
2017-02-10T00:39:11.805Z,13.49
2017-02-10T00:40:20.775Z,13.43
2017-02-10T00:41:29.758Z,13.41
2017-02-10T00:42:39.145Z,13.43
2017-02-10T00:43:48.152Z,13.41
2017-02-10T00:44:57.136Z,13.32
2017-02-10T00:46:06.113Z,13.4
2017-02-10T00:47:15.096Z,13.4
2017-02-10T00:48:24.069Z,13.27
2017-02-10T00:49:33.043Z,13.32
2017-02-10T00:50:42.025Z,13.28
2017-02-10T00:51:50.998Z,13.17
2017-02-10T00:52:59.983Z,13.25
2017-02-10T00:54:08.961Z,13.15
2017-02-10T00:55:18.338Z,13.09
2017-02-10T00:56:27.326Z,13.05
2017-02-10T00:57:36.319Z,12.9
2017-02-10T00:58:45.708Z,12.81
2017-02-10T00:59:54.690Z,12.78
2017-02-10T01:01:03.668Z,12.8
2017-02-10T01:02:12.645Z,12.81
2017-02-10T01:03:21.616Z,12.92
2017-02-10T01:04:30.593Z,12.81
2017-02-10T01:05:39.571Z,12.67
2017-02-10T01:06:48.959Z,12.63
2017-02-10T01:07:57.935Z,12.63
2017-02-10T01:09:07.315Z,12.72
2017-02-10T01:10:16.296Z,12.7
2017-02-10T01:11:25.266Z,12.69
2017-02-10T01:12:34.250Z,12.67
2017-02-10T01:13:43.223Z,12.69
2017-02-10T01:14:52.200Z,12.52
2017-02-10T01:16:01.227Z,12.57
2017-02-10T01:17:10.197Z,12.57
2017-02-10T01:18:19.173Z,12.54
2017-02-10T01:19:28.155Z,12.54
2017-02-10T01:20:37.124Z,12.51
2017-02-10T01:21:46.116Z,12.44
2017-02-10T01:22:55.084Z,12.47
2017-02-10T01:24:04.468Z,12.44
2017-02-10T01:25:13.451Z,12.36
2017-02-10T01:26:22.434Z,12.47
2017-02-10T01:27:31.407Z,12.55
2017-02-10T01:28:40.805Z,12.45
2017-02-10T01:29:49.774Z,12.29
2017-02-10T01:30:58.745Z,12.45
2017-02-10T01:32:07.724Z,12.37
2017-02-10T01:33:16.698Z,12.41
2017-02-10T01:34:25.673Z,12.48
2017-02-10T01:35:34.649Z,12.29
2017-02-10T01:36:43.625Z,12.32
2017-02-10T01:37:52.595Z,12.33
2017-02-10T01:39:01.988Z,12.21
2017-02-10T01:40:10.954Z,12.11
2017-02-10T01:41:20.418Z,12.08
2017-02-10T01:42:29.390Z,12
2017-02-10T01:43:38.367Z,12.05
2017-02-10T01:44:47.348Z,12.01
2017-02-10T01:45:56.315Z,12.08
2017-02-10T01:47:05.770Z,12.04
2017-02-10T01:48:14.737Z,12.04
2017-02-10T01:49:23.715Z,12.18
2017-02-10T01:50:32.676Z,12
2017-02-10T01:51:41.665Z,11.94
2017-02-10T01:52:50.638Z,11.96
2017-02-10T01:53:59.611Z,11.93
2017-02-10T01:55:08.583Z,11.96
2017-02-10T01:56:17.560Z,12.04
2017-02-10T01:57:26.529Z,11.88
2017-02-10T01:58:35.507Z,11.94
2017-02-10T01:59:44.483Z,11.88
2017-02-10T02:00:53.465Z,11.8
2017-02-10T02:02:02.437Z,11.88
2017-02-10T02:03:11.925Z,11.85
2017-02-10T02:04:21.318Z,11.85
2017-02-10T02:05:30.309Z,11.65
2017-02-10T02:06:39.698Z,11.73
2017-02-10T02:07:48.662Z,11.71
2017-02-10T02:08:57.649Z,11.65
2017-02-10T02:10:06.623Z,11.81
2017-02-10T02:11:15.596Z,11.82
2017-02-10T02:12:24.565Z,11.7
2017-02-10T02:13:33.535Z,11.7
2017-02-10T02:14:42.492Z,11.78
2017-02-10T02:15:51.469Z,11.71
2017-02-10T02:17:00.445Z,11.73
2017-02-10T02:18:09.831Z,11.77
2017-02-10T02:19:18.853Z,11.73
2017-02-10T02:20:27.829Z,11.63
2017-02-10T02:21:36.793Z,11.57
2017-02-10T02:22:45.766Z,11.59
2017-02-10T02:23:54.739Z,11.59
2017-02-10T02:25:03.711Z,11.59
2017-02-10T02:26:12.691Z,11.56
2017-02-10T02:27:21.672Z,11.67
2017-02-10T02:28:30.647Z,11.55
2017-02-10T02:29:39.618Z,11.52
2017-02-10T02:30:48.602Z,11.59
2017-02-10T02:31:57.567Z,11.6
2017-02-10T02:33:06.537Z,11.41
2017-02-10T02:34:15.513Z,11.48
2017-02-10T02:35:24.487Z,11.45
2017-02-10T02:36:33.473Z,11.42
2017-02-10T02:37:42.450Z,11.5
2017-02-10T02:38:51.418Z,11.37
2017-02-10T02:40:00.387Z,11.24
2017-02-10T02:41:09.375Z,11.4
2017-02-10T02:42:18.352Z,11.35
2017-02-10T02:43:27.335Z,11.48
2017-02-10T02:44:36.308Z,11.35
2017-02-10T02:45:45.697Z,11.24
2017-02-10T02:46:54.668Z,11.19
2017-02-10T02:48:03.650Z,11.3
2017-02-10T02:49:12.626Z,11.37
2017-02-10T02:50:21.594Z,11.34
2017-02-10T02:51:30.567Z,11.24
2017-02-10T02:52:39.546Z,11.31
2017-02-10T02:53:48.572Z,11.24
2017-02-10T02:54:57.551Z,11.23
2017-02-10T02:56:06.522Z,11.17
2017-02-10T02:57:15.495Z,11.19
2017-02-10T02:58:24.473Z,11.2
2017-02-10T02:59:33.480Z,11.32
2017-02-10T03:00:42.450Z,11.37
2017-02-10T03:01:51.435Z,11.24
2017-02-10T03:03:00.410Z,11.26
2017-02-10T03:04:09.433Z,11.27
2017-02-10T03:05:18.403Z,11.17
2017-02-10T03:06:27.862Z,11.16
2017-02-10T03:07:36.834Z,11.13
2017-02-10T03:08:45.817Z,11.13
2017-02-10T03:09:54.829Z,11.23
2017-02-10T03:11:03.805Z,11.13
2017-02-10T03:12:12.776Z,10.97
2017-02-10T03:13:21.744Z,10.99
2017-02-10T03:14:30.717Z,10.87
2017-02-10T03:15:40.105Z,10.87
2017-02-10T03:16:49.079Z,11.02
2017-02-10T03:17:58.046Z,11.1
2017-02-10T03:19:07.020Z,10.97
2017-02-10T03:20:16.452Z,10.95
2017-02-10T03:21:25.426Z,10.98
2017-02-10T03:22:34.450Z,10.79
2017-02-10T03:23:43.433Z,10.84
2017-02-10T03:24:52.401Z,10.87
2017-02-10T03:26:01.380Z,10.76
2017-02-10T03:27:10.348Z,10.68
2017-02-10T03:28:19.371Z,10.83
2017-02-10T03:29:28.347Z,10.84
2017-02-10T03:30:37.320Z,10.66
2017-02-10T03:31:46.293Z,10.71
2017-02-10T03:32:55.270Z,10.82
2017-02-10T03:34:04.247Z,10.77
2017-02-10T03:35:13.212Z,10.71
2017-02-10T03:36:22.191Z,10.8
2017-02-10T03:37:31.170Z,10.71
2017-02-10T03:38:40.139Z,10.68
2017-02-10T03:39:49.105Z,10.74
2017-02-10T03:40:58.084Z,10.65
2017-02-10T03:42:07.057Z,10.69
2017-02-10T03:43:16.447Z,10.69
2017-02-10T03:44:25.420Z,10.73
2017-02-10T03:45:34.385Z,10.79
2017-02-10T03:46:43.344Z,10.76
2017-02-10T03:47:52.331Z,10.84
2017-02-10T03:49:01.705Z,10.68
2017-02-10T03:50:10.684Z,10.66
2017-02-10T03:51:19.650Z,10.51
2017-02-10T03:52:28.623Z,10.58
2017-02-10T03:53:37.590Z,10.65
2017-02-10T03:54:46.569Z,10.62
2017-02-10T03:55:55.539Z,10.51
2017-02-10T03:57:04.514Z,10.58
2017-02-10T03:58:13.476Z,10.61
2017-02-10T03:59:22.454Z,10.62
2017-02-10T04:00:31.425Z,10.55
2017-02-10T04:01:40.818Z,10.59
2017-02-10T04:02:50.202Z,10.55
2017-02-10T04:03:59.180Z,10.51
2017-02-10T04:05:08.148Z,10.49
2017-02-10T04:06:17.127Z,10.55
2017-02-10T04:07:26.107Z,10.53
2017-02-10T04:08:35.084Z,10.64
2017-02-10T04:09:44.060Z,10.47
2017-02-10T04:10:53.025Z,10.62
2017-02-10T04:12:02.488Z,10.4
2017-02-10T04:13:11.467Z,10.47
2017-02-10T04:14:20.447Z,10.47
2017-02-10T04:15:29.834Z,10.47
2017-02-10T04:16:38.806Z,10.65
2017-02-10T04:17:48.088Z,10.56
2017-02-10T04:18:57.764Z,10.39
2017-02-10T04:20:06.741Z,10.39
2017-02-10T04:21:15.722Z,10.66
2017-02-10T04:22:24.687Z,10.42
2017-02-10T04:23:33.654Z,10.47
2017-02-10T04:24:42.631Z,10.49
2017-02-10T04:25:51.605Z,10.42
2017-02-10T04:27:00.592Z,10.31
2017-02-10T04:28:09.570Z,10.39
2017-02-10T04:29:18.534Z,10.42
2017-02-10T04:30:27.503Z,10.36
2017-02-10T04:31:36.480Z,10.38
2017-02-10T04:32:45.448Z,10.45
2017-02-10T04:33:54.835Z,10.35
2017-02-10T04:35:03.808Z,10.18
2017-02-10T04:36:12.782Z,10.02
2017-02-10T04:37:21.746Z,10.2
2017-02-10T04:38:30.730Z,10.1
2017-02-10T04:39:40.114Z,10.18
2017-02-10T04:40:49.093Z,10.18
2017-02-10T04:41:58.062Z,10.1
2017-02-10T04:43:07.944Z,10.05
2017-02-10T04:44:16.908Z,10.14
2017-02-10T04:45:25.883Z,10.07
2017-02-10T04:46:35.263Z,10.05
2017-02-10T04:47:44.732Z,10.07
2017-02-10T04:48:54.133Z,10.05
2017-02-10T04:50:03.692Z,10.02
2017-02-10T04:51:13.076Z,10
2017-02-10T04:52:22.059Z,10.05
2017-02-10T04:53:31.035Z,10.07
2017-02-10T04:54:40.010Z,9.97
2017-02-10T04:55:48.985Z,9.95
2017-02-10T04:56:57.976Z,9.99
2017-02-10T04:58:06.941Z,10.06
2017-02-10T04:59:15.925Z,10
2017-02-10T05:00:24.900Z,9.88
2017-02-10T05:01:34.287Z,9.99
2017-02-10T05:02:43.259Z,9.94
2017-02-10T05:03:52.225Z,9.95
2017-02-10T05:05:01.625Z,9.91
2017-02-10T05:06:10.612Z,10
2017-02-10T05:07:19.597Z,9.95
2017-02-10T05:08:28.570Z,9.99
2017-02-10T05:09:37.540Z,9.91
2017-02-10T05:10:46.507Z,9.92
2017-02-10T05:11:55.727Z,9.99
2017-02-10T05:13:04.698Z,9.81
2017-02-10T05:14:14.093Z,9.87
2017-02-10T05:15:23.058Z,9.85
2017-02-10T05:16:32.034Z,9.74
2017-02-10T05:17:41.000Z,9.56
2017-02-10T05:18:49.972Z,9.69
2017-02-10T05:19:59.364Z,9.73
2017-02-10T05:21:08.347Z,9.71
2017-02-10T05:22:17.320Z,9.82
2017-02-10T05:23:26.293Z,9.85
2017-02-10T05:24:35.265Z,9.85
2017-02-10T05:25:44.238Z,9.85
2017-02-10T05:26:53.205Z,9.82
2017-02-10T05:28:02.174Z,9.82
2017-02-10T05:29:11.145Z,9.85
2017-02-10T05:30:20.114Z,9.87
2017-02-10T05:31:29.097Z,9.88
2017-02-10T05:32:38.473Z,9.85
2017-02-10T05:33:47.644Z,9.84
2017-02-10T05:34:56.632Z,9.77
2017-02-10T05:36:05.674Z,9.74
2017-02-10T05:37:14.641Z,9.7
2017-02-10T05:38:23.621Z,9.73
2017-02-10T05:39:32.593Z,9.7
2017-02-10T05:40:41.574Z,9.79
2017-02-10T05:41:50.545Z,9.73
2017-02-10T05:42:59.519Z,9.7
2017-02-10T05:44:08.490Z,9.81
2017-02-10T05:45:17.464Z,9.79
2017-02-10T05:46:26.437Z,9.7
2017-02-10T05:47:35.413Z,9.63
2017-02-10T05:48:44.390Z,9.69
2017-02-10T05:49:53.358Z,9.56
2017-02-10T05:51:02.336Z,9.48
2017-02-10T05:52:11.309Z,9.51
2017-02-10T05:53:20.282Z,9.51
2017-02-10T05:54:29.254Z,9.49
2017-02-10T05:55:38.220Z,9.56
2017-02-10T05:56:47.199Z,9.64
2017-02-10T05:57:56.632Z,9.55
2017-02-10T05:59:05.609Z,9.66
2017-02-10T06:00:14.999Z,9.62
2017-02-10T06:01:23.969Z,9.54
2017-02-10T06:02:32.929Z,9.58
2017-02-10T06:03:41.950Z,9.7
2017-02-10T06:04:50.930Z,9.7
2017-02-10T06:05:59.896Z,9.59
2017-02-10T06:07:08.872Z,9.69
2017-02-10T06:08:17.844Z,9.66
2017-02-10T06:09:26.835Z,9.52
2017-02-10T06:10:35.807Z,9.64
2017-02-10T06:11:44.797Z,10.09
2017-02-10T06:12:53.761Z,10.49
2017-02-10T06:14:02.731Z,10.97
2017-02-10T06:15:11.709Z,11.4
2017-02-10T06:16:20.677Z,11.56
2017-02-10T06:17:29.658Z,11.86
2017-02-10T06:18:38.633Z,11.97
2017-02-10T06:19:47.593Z,12.04
2017-02-10T06:20:56.563Z,12.15
2017-02-10T06:22:05.544Z,12.32
2017-02-10T06:23:14.511Z,12.27
2017-02-10T06:24:23.491Z,12.32
2017-02-10T06:25:32.876Z,12.47
2017-02-10T06:26:41.904Z,12.62
2017-02-10T06:27:50.872Z,12.67
2017-02-10T06:28:59.853Z,12.73
2017-02-10T06:30:08.821Z,12.72
2017-02-10T06:31:17.804Z,12.69
2017-02-10T06:32:26.805Z,12.72
2017-02-10T06:33:35.781Z,12.84
2017-02-10T06:34:44.749Z,12.88
2017-02-10T06:35:53.725Z,12.98
2017-02-10T06:37:02.695Z,13.1
2017-02-10T06:38:12.093Z,13.2
2017-02-10T06:39:21.067Z,13.31
2017-02-10T06:40:30.034Z,13.28
2017-02-10T06:41:39.420Z,13.3
2017-02-10T06:42:48.391Z,13.3
2017-02-10T06:43:57.379Z,13.47
2017-02-10T06:45:06.354Z,13.47
2017-02-10T06:46:15.337Z,13.58
2017-02-10T06:47:24.307Z,13.56
2017-02-10T06:48:33.270Z,13.58
2017-02-10T06:49:42.249Z,13.66
2017-02-10T06:50:51.227Z,13.76
2017-02-10T06:52:00.202Z,13.76
2017-02-10T06:53:09.175Z,13.81
2017-02-10T06:54:18.142Z,13.81
2017-02-10T06:55:27.111Z,13.89
2017-02-10T06:56:36.087Z,13.79
2017-02-10T06:57:45.064Z,13.8
2017-02-10T06:58:54.039Z,13.79
2017-02-10T07:00:03.018Z,13.76
2017-02-10T07:01:11.986Z,13.87
2017-02-10T07:02:20.954Z,13.81
2017-02-10T07:03:29.930Z,13.81
2017-02-10T07:04:38.914Z,13.83
2017-02-10T07:05:47.882Z,13.77
2017-02-10T07:06:56.869Z,13.84
2017-02-10T07:08:05.830Z,13.84
2017-02-10T07:09:14.809Z,13.91
2017-02-10T07:10:23.780Z,13.91
2017-02-10T07:11:32.755Z,14.02
2017-02-10T07:12:41.982Z,13.99
2017-02-10T07:13:50.953Z,13.99
2017-02-10T07:14:59.928Z,14.02
2017-02-10T07:16:09.309Z,13.92
2017-02-10T07:17:18.289Z,13.95
2017-02-10T07:18:27.266Z,13.94
2017-02-10T07:19:36.239Z,13.95
2017-02-10T07:20:45.206Z,13.97
2017-02-10T07:21:54.191Z,13.95
2017-02-10T07:23:03.154Z,13.99
2017-02-10T07:24:12.135Z,14.02
2017-02-10T07:25:21.106Z,14.04
2017-02-10T07:26:30.079Z,14.13
2017-02-10T07:27:39.457Z,14.12
2017-02-10T07:28:48.852Z,14.09
2017-02-10T07:29:57.828Z,14.06
2017-02-10T07:31:07.301Z,14.13
2017-02-10T07:32:16.274Z,14.13
2017-02-10T07:33:25.251Z,14.24
2017-02-10T07:34:34.633Z,14.23
2017-02-10T07:35:43.608Z,14.28
2017-02-10T07:36:52.586Z,14.28
2017-02-10T07:38:01.563Z,14.32
2017-02-10T07:39:10.543Z,14.32
2017-02-10T07:40:19.504Z,14.35
2017-02-10T07:41:28.490Z,14.39
2017-02-10T07:42:37.473Z,14.37
2017-02-10T07:43:46.442Z,14.38
2017-02-10T07:44:55.421Z,14.39
2017-02-10T07:46:04.394Z,14.39
2017-02-10T07:47:13.373Z,14.41
2017-02-10T07:48:22.345Z,14.42
2017-02-10T07:49:31.324Z,14.52
2017-02-10T07:50:40.302Z,14.44
2017-02-10T07:51:49.270Z,14.56
2017-02-10T07:52:58.653Z,14.57
2017-02-10T07:54:07.636Z,14.59
2017-02-10T07:55:16.620Z,14.67
2017-02-10T07:56:25.593Z,14.59
2017-02-10T07:57:34.565Z,14.68
2017-02-10T07:58:43.590Z,14.68
2017-02-10T07:59:52.570Z,14.65
2017-02-10T08:01:01.541Z,14.68
2017-02-10T08:02:10.529Z,14.71
2017-02-10T08:03:19.504Z,14.74
2017-02-10T08:04:28.480Z,14.82
2017-02-10T08:05:37.490Z,14.82
2017-02-10T08:06:46.467Z,14.8
2017-02-10T08:07:55.442Z,14.8
2017-02-10T08:09:04.425Z,14.75
2017-02-10T08:10:13.804Z,14.8
2017-02-10T08:11:22.779Z,14.87
2017-02-10T08:12:31.792Z,14.91
2017-02-10T08:13:41.180Z,14.91
2017-02-10T08:14:50.158Z,14.94
2017-02-10T08:15:59.133Z,15.04
2017-02-10T08:17:08.104Z,15.05
2017-02-10T08:18:17.073Z,14.97
2017-02-10T08:19:26.057Z,15.04
2017-02-10T08:20:35.435Z,15.04
2017-02-10T08:21:44.420Z,15.09
2017-02-10T08:22:53.393Z,15.01
2017-02-10T08:24:02.377Z,14.98
2017-02-10T08:25:11.347Z,15.05
2017-02-10T08:26:20.325Z,15.13
2017-02-10T08:27:29.319Z,15.13
2017-02-10T08:28:38.299Z,15.12
2017-02-10T08:29:47.282Z,15.19
2017-02-10T08:30:56.255Z,15.11
2017-02-10T08:32:05.230Z,15.13
2017-02-10T08:33:14.209Z,15.13
2017-02-10T08:34:23.193Z,15.12
2017-02-10T08:35:32.164Z,15.13
2017-02-10T08:36:41.151Z,15.21
2017-02-10T08:37:50.120Z,15.15
2017-02-10T08:38:59.089Z,15.26
2017-02-10T08:40:08.068Z,15.28
2017-02-10T08:41:17.464Z,15.33
2017-02-10T08:42:26.437Z,15.31
2017-02-10T08:43:35.905Z,15.34
2017-02-10T08:44:44.878Z,15.28
2017-02-10T08:45:53.851Z,15.26
2017-02-10T08:47:02.839Z,15.31
2017-02-10T08:48:11.817Z,15.34
2017-02-10T08:49:20.788Z,15.37
2017-02-10T08:50:29.768Z,15.38
2017-02-10T08:51:38.751Z,15.44
2017-02-10T08:52:47.718Z,15.41
2017-02-10T08:53:56.699Z,15.44
2017-02-10T08:55:05.679Z,15.46
2017-02-10T08:56:14.649Z,15.52
2017-02-10T08:57:23.635Z,15.52
2017-02-10T08:58:32.614Z,15.52
2017-02-10T08:59:41.593Z,15.55
2017-02-10T09:00:50.567Z,15.55
2017-02-10T09:01:59.551Z,15.53
2017-02-10T09:03:08.531Z,15.52
2017-02-10T09:04:17.504Z,15.66
2017-02-10T09:05:26.481Z,15.66
2017-02-10T09:06:35.447Z,15.61
2017-02-10T09:07:44.436Z,15.73
2017-02-10T09:08:53.415Z,15.7
2017-02-10T09:10:02.388Z,15.66
2017-02-10T09:11:11.378Z,15.66
2017-02-10T09:12:20.365Z,15.63
2017-02-10T09:13:29.583Z,15.76
2017-02-10T09:14:38.559Z,15.66
2017-02-10T09:15:47.533Z,15.81
2017-02-10T09:16:56.513Z,15.73
2017-02-10T09:18:05.479Z,15.84
2017-02-10T09:19:14.460Z,15.81
2017-02-10T09:20:23.424Z,15.81
2017-02-10T09:21:32.401Z,15.85
2017-02-10T09:22:41.861Z,15.85
2017-02-10T09:23:50.837Z,15.89
2017-02-10T09:24:59.816Z,15.88
2017-02-10T09:26:09.204Z,15.94
2017-02-10T09:27:18.176Z,15.91
2017-02-10T09:28:27.154Z,15.88
2017-02-10T09:29:36.148Z,15.91
2017-02-10T09:30:45.117Z,15.97
2017-02-10T09:31:54.092Z,16.01
2017-02-10T09:33:03.075Z,16
2017-02-10T09:34:12.042Z,16
2017-02-10T09:35:21.025Z,16.01
2017-02-10T09:36:30.006Z,16.06
2017-02-10T09:37:38.980Z,16.07
2017-02-10T09:38:47.959Z,16.06
2017-02-10T09:39:56.940Z,16.04
2017-02-10T09:41:05.915Z,16.11
2017-02-10T09:42:15.306Z,16.07
2017-02-10T09:43:24.287Z,16.07
2017-02-10T09:44:33.261Z,16.11
2017-02-10T09:45:42.238Z,16.14
2017-02-10T09:46:51.215Z,16.18
2017-02-10T09:48:00.189Z,16.2
2017-02-10T09:49:09.168Z,16.18
2017-02-10T09:50:18.145Z,16.25
2017-02-10T09:51:27.125Z,16.25
2017-02-10T09:52:36.502Z,16.25
2017-02-10T09:53:45.492Z,16.29
2017-02-10T09:54:54.497Z,16.23
2017-02-10T09:56:03.468Z,16.2
2017-02-10T09:57:12.440Z,16.18
2017-02-10T09:58:21.412Z,16.37
2017-02-10T09:59:30.433Z,16.25
2017-02-10T10:00:39.411Z,16.27
2017-02-10T10:01:48.392Z,16.18
2017-02-10T10:02:57.363Z,16.29
2017-02-10T10:04:06.348Z,16.2
2017-02-10T10:05:15.325Z,16.35
2017-02-10T10:06:24.306Z,16.3
2017-02-10T10:07:33.282Z,16.32
2017-02-10T10:08:42.257Z,16.4
2017-02-10T10:09:51.647Z,16.35
2017-02-10T10:11:01.038Z,16.29
2017-02-10T10:12:10.008Z,16.42
2017-02-10T10:13:18.988Z,16.34
2017-02-10T10:14:27.961Z,16.29
2017-02-10T10:15:36.947Z,16.35
2017-02-10T10:16:45.919Z,16.35
2017-02-10T10:17:54.906Z,16.38
2017-02-10T10:19:03.878Z,16.32
2017-02-10T10:20:12.849Z,16.32
2017-02-10T10:21:21.830Z,16.4
2017-02-10T10:22:30.812Z,16.27
2017-02-10T10:23:40.200Z,16.4
2017-02-10T10:24:49.182Z,16.38
2017-02-10T10:25:58.158Z,16.35
2017-02-10T10:27:07.131Z,16.41
2017-02-10T10:28:16.115Z,16.4
2017-02-10T10:29:25.098Z,16.41
2017-02-10T10:30:34.075Z,16.4
2017-02-10T10:31:43.044Z,16.44
2017-02-10T10:32:52.028Z,16.42
2017-02-10T10:34:01.407Z,16.45
2017-02-10T10:35:10.424Z,16.44
2017-02-10T10:36:19.408Z,16.42
2017-02-10T10:37:28.393Z,16.45
2017-02-10T10:38:37.782Z,16.56
2017-02-10T10:39:46.786Z,16.42
2017-02-10T10:40:55.755Z,16.58
2017-02-10T10:42:04.745Z,16.55
2017-02-10T10:43:13.731Z,16.65
2017-02-10T10:44:22.700Z,16.62
2017-02-10T10:45:31.669Z,16.69
2017-02-10T10:46:41.066Z,16.73
2017-02-10T10:47:50.030Z,16.74
2017-02-10T10:48:59.012Z,16.78
2017-02-10T10:50:08.408Z,16.82
2017-02-10T10:51:17.383Z,16.87
2017-02-10T10:52:26.351Z,16.9
2017-02-10T10:53:35.330Z,16.93
2017-02-10T10:54:44.306Z,16.96
2017-02-10T10:55:53.284Z,16.93
2017-02-10T10:57:02.278Z,16.98
2017-02-10T10:58:11.250Z,16.99
2017-02-10T10:59:20.222Z,16.92
2017-02-10T11:00:29.203Z,16.92
2017-02-10T11:01:38.600Z,17.11
2017-02-10T11:02:47.582Z,16.95
2017-02-10T11:03:56.564Z,17.08
2017-02-10T11:05:06.027Z,17.11
2017-02-10T11:06:15.010Z,17.14
2017-02-10T11:07:23.997Z,17.15
2017-02-10T11:08:32.988Z,17.14
2017-02-10T11:09:41.962Z,17.15
2017-02-10T11:10:51.836Z,17.21
2017-02-10T11:12:00.811Z,17.23
2017-02-10T11:13:09.781Z,17.21
2017-02-10T11:14:19.171Z,17.26
2017-02-10T11:15:28.153Z,17.2
2017-02-10T11:16:37.539Z,17.26
2017-02-10T11:17:46.512Z,17.28
2017-02-10T11:18:55.486Z,17.32
2017-02-10T11:20:04.459Z,17.32
2017-02-10T11:21:13.446Z,17.32
2017-02-10T11:22:22.423Z,17.33
2017-02-10T11:23:31.408Z,17.38
2017-02-10T11:24:40.388Z,17.4
2017-02-10T11:25:49.365Z,17.38
2017-02-10T11:26:58.336Z,17.44
2017-02-10T11:28:07.315Z,17.45
2017-02-10T11:29:16.296Z,17.42
2017-02-10T11:30:25.264Z,17.51
2017-02-10T11:31:34.241Z,17.48
2017-02-10T11:32:43.221Z,17.55
2017-02-10T11:33:52.194Z,17.54
2017-02-10T11:35:01.663Z,17.55
2017-02-10T11:36:10.636Z,17.57
2017-02-10T11:37:19.609Z,17.57
2017-02-10T11:38:28.588Z,17.67
2017-02-10T11:39:37.976Z,17.6
2017-02-10T11:40:46.959Z,17.64
2017-02-10T11:41:55.934Z,17.77
2017-02-10T11:43:04.914Z,17.71
2017-02-10T11:44:13.910Z,17.77
2017-02-10T11:45:22.890Z,17.77
2017-02-10T11:46:31.870Z,17.73
2017-02-10T11:47:40.841Z,17.79
2017-02-10T11:48:49.815Z,17.84
2017-02-10T11:49:58.797Z,17.85
2017-02-10T11:51:07.813Z,17.85
2017-02-10T11:52:16.798Z,17.84
2017-02-10T11:53:26.185Z,17.89
2017-02-10T11:54:35.166Z,17.85
2017-02-10T11:55:44.555Z,17.79
2017-02-10T11:56:53.532Z,17.74
2017-02-10T11:58:02.519Z,17.98
2017-02-10T11:59:11.486Z,17.8
2017-02-10T12:00:20.452Z,17.89
2017-02-10T12:01:29.433Z,17.94
2017-02-10T12:02:38.400Z,17.92
2017-02-10T12:03:47.377Z,17.95
2017-02-10T12:04:56.353Z,17.98
2017-02-10T12:06:05.750Z,18.02
2017-02-10T12:07:14.717Z,18.03
2017-02-10T12:08:23.694Z,17.96
2017-02-10T12:09:33.187Z,18.03
2017-02-10T12:10:42.163Z,17.98
2017-02-10T12:11:51.145Z,18.04
2017-02-10T12:13:00.122Z,18.11
2017-02-10T12:14:09.109Z,18.07
2017-02-10T12:15:18.078Z,18.14
2017-02-10T12:16:27.064Z,18.13
2017-02-10T12:17:36.035Z,18.11
2017-02-10T12:18:45.020Z,18.06
2017-02-10T12:19:54.006Z,18.14
2017-02-10T12:21:02.985Z,18.22
2017-02-10T12:22:11.968Z,18.13
2017-02-10T12:23:20.975Z,18.19
2017-02-10T12:24:29.957Z,18.25
2017-02-10T12:25:38.938Z,18.25
2017-02-10T12:26:47.919Z,18.22
2017-02-10T12:27:57.320Z,18.17
2017-02-10T12:29:06.294Z,18.24
2017-02-10T12:30:15.273Z,18.21
2017-02-10T12:31:24.246Z,18.31
2017-02-10T12:32:33.229Z,18.28
2017-02-10T12:33:42.641Z,18.24
2017-02-10T12:34:51.610Z,18.29
2017-02-10T12:36:00.584Z,18.4
2017-02-10T12:37:09.564Z,18.32
2017-02-10T12:38:18.961Z,18.44
2017-02-10T12:39:27.943Z,18.42
2017-02-10T12:40:36.928Z,18.39
2017-02-10T12:41:45.906Z,18.42
2017-02-10T12:42:54.871Z,18.42
2017-02-10T12:44:03.853Z,18.43
2017-02-10T12:45:12.827Z,18.46
2017-02-10T12:46:21.817Z,18.43
2017-02-10T12:47:30.806Z,18.46
2017-02-10T12:48:39.771Z,18.49
2017-02-10T12:49:48.746Z,18.44
2017-02-10T12:50:57.728Z,18.59
2017-02-10T12:52:06.714Z,18.53
2017-02-10T12:53:15.688Z,18.51
2017-02-10T12:54:24.678Z,18.51
2017-02-10T12:55:33.651Z,18.53
2017-02-10T12:56:42.624Z,18.49
2017-02-10T12:57:51.609Z,18.5
2017-02-10T12:59:00.589Z,18.53
2017-02-10T13:00:09.556Z,18.5
2017-02-10T13:01:18.546Z,18.62
2017-02-10T13:02:27.522Z,18.54
2017-02-10T13:03:36.494Z,18.64
2017-02-10T13:04:45.472Z,18.68
2017-02-10T13:05:54.455Z,18.66
2017-02-10T13:07:03.434Z,18.64
2017-02-10T13:08:13.241Z,18.69
2017-02-10T13:09:22.256Z,18.64
2017-02-10T13:10:31.641Z,18.66
2017-02-10T13:11:40.626Z,18.66
2017-02-10T13:12:49.600Z,18.76
2017-02-10T13:13:58.571Z,18.71
2017-02-10T13:15:07.551Z,18.83
2017-02-10T13:16:16.531Z,18.8
2017-02-10T13:17:25.508Z,18.76
2017-02-10T13:18:34.488Z,18.83
2017-02-10T13:19:43.467Z,18.74
2017-02-10T13:20:52.443Z,18.69
2017-02-10T13:22:01.425Z,18.77
2017-02-10T13:23:10.407Z,18.79
2017-02-10T13:24:19.381Z,18.81
2017-02-10T13:25:28.360Z,18.77
2017-02-10T13:26:37.746Z,18.8
2017-02-10T13:27:46.747Z,18.8
2017-02-10T13:28:55.728Z,18.89
2017-02-10T13:30:04.712Z,18.76
2017-02-10T13:31:14.130Z,18.84
2017-02-10T13:32:23.102Z,18.81
2017-02-10T13:33:32.097Z,18.79
2017-02-10T13:34:41.075Z,18.83
2017-02-10T13:35:50.465Z,18.83
2017-02-10T13:36:59.444Z,18.81
2017-02-10T13:38:08.831Z,18.89
2017-02-10T13:39:17.811Z,18.97
2017-02-10T13:40:26.783Z,18.94
2017-02-10T13:41:35.770Z,18.9
2017-02-10T13:42:44.752Z,18.95
2017-02-10T13:43:53.726Z,18.91
2017-02-10T13:45:03.118Z,18.95
2017-02-10T13:46:12.102Z,18.9
2017-02-10T13:47:21.573Z,18.95
2017-02-10T13:48:30.563Z,19.01
2017-02-10T13:49:39.548Z,19.07
2017-02-10T13:50:48.522Z,18.94
2017-02-10T13:51:57.503Z,18.95
2017-02-10T13:53:06.476Z,18.98
2017-02-10T13:54:15.457Z,18.95
2017-02-10T13:55:24.437Z,19.01
2017-02-10T13:56:33.591Z,19.01
2017-02-10T13:57:42.567Z,19.02
2017-02-10T13:58:51.544Z,19.02
2017-02-10T14:00:00.520Z,19.02
2017-02-10T14:01:09.537Z,19.02
2017-02-10T14:02:18.521Z,19.09
2017-02-10T14:03:27.497Z,19.09
2017-02-10T14:04:36.482Z,19.1
2017-02-10T14:05:45.456Z,19.05
2017-02-10T14:06:54.454Z,19.17
2017-02-10T14:08:03.432Z,19.18
2017-02-10T14:09:12.422Z,19.06
2017-02-10T14:10:21.402Z,19.18
2017-02-10T14:11:30.385Z,19.15
2017-02-10T14:12:39.360Z,19.15
2017-02-10T14:13:48.352Z,19.15
2017-02-10T14:14:57.370Z,19.12
2017-02-10T14:16:06.838Z,19.22
2017-02-10T14:17:15.819Z,19.17
2017-02-10T14:18:24.802Z,19.3
2017-02-10T14:19:33.778Z,19.24
2017-02-10T14:20:42.761Z,19.24
2017-02-10T14:21:51.737Z,19.32
2017-02-10T14:23:00.720Z,19.22
2017-02-10T14:24:09.705Z,19.32
2017-02-10T14:25:18.696Z,19.35
2017-02-10T14:26:28.178Z,19.36
2017-02-10T14:27:37.163Z,19.46
2017-02-10T14:28:46.147Z,19.43
2017-02-10T14:29:55.128Z,19.46
2017-02-10T14:31:04.117Z,19.51
2017-02-10T14:32:13.099Z,19.46
2017-02-10T14:33:22.082Z,19.5
2017-02-10T14:34:31.070Z,19.43
2017-02-10T14:35:40.050Z,19.53
2017-02-10T14:36:49.033Z,19.53
2017-02-10T14:37:58.013Z,19.51
2017-02-10T14:39:06.987Z,19.42
2017-02-10T14:40:15.961Z,19.43
2017-02-10T14:41:24.944Z,19.42
2017-02-10T14:42:33.929Z,19.46
2017-02-10T14:43:42.901Z,19.42
2017-02-10T14:44:51.887Z,19.45
2017-02-10T14:46:00.860Z,19.5
2017-02-10T14:47:10.250Z,19.5
2017-02-10T14:48:19.226Z,19.45
2017-02-10T14:49:28.209Z,19.51
2017-02-10T14:50:37.177Z,19.43
2017-02-10T14:51:46.206Z,19.46
2017-02-10T14:52:55.593Z,19.43
2017-02-10T14:54:04.586Z,19.45